sensor_id;sensor_type;location;lat;lon;timestamp;P1;durP1;ratioP1;P2;durP2;ratioP2
16969;SDS011;8601;48.718;8.992;2023-05-10T00:01:35;0.80;;;0.80;;
16969;SDS011;8601;48.718;8.992;2023-05-10T00:04:02;1.93;;;0.80;;
16969;SDS011;8601;48.718;8.992;2023-05-10T00:06:29;2.10;;;0.80;;
16969;SDS011;8601;48.718;8.992;2023-05-10T00:08:56;1.73;;;0.70;;
16969;SDS011;8601;48.718;8.992;2023-05-10T00:11:23;4.20;;;0.77;;
16969;SDS011;8601;48.718;8.992;2023-05-10T00:13:57;0.73;;;0.73;;
16969;SDS011;8601;48.718;8.992;2023-05-10T00:16:25;2.63;;;0.77;;
16969;SDS011;8601;48.718;8.992;2023-05-10T00:18:52;0.60;;;0.60;;
16969;SDS011;8601;48.718;8.992;2023-05-10T00:21:18;0.90;;;0.67;;
16969;SDS011;8601;48.718;8.992;2023-05-10T00:23:45;0.57;;;0.57;;
16969;SDS011;8601;48.718;8.992;2023-05-10T00:26:12;1.47;;;0.60;;
16969;SDS011;8601;48.718;8.992;2023-05-10T00:28:39;0.80;;;0.70;;
16969;SDS011;8601;48.718;8.992;2023-05-10T00:31:08;0.70;;;0.70;;
16969;SDS011;8601;48.718;8.992;2023-05-10T00:33:35;0.70;;;0.70;;
16969;SDS011;8601;48.718;8.992;2023-05-10T00:36:02;2.23;;;0.60;;
16969;SDS011;8601;48.718;8.992;2023-05-10T00:38:32;0.60;;;0.60;;
16969;SDS011;8601;48.718;8.992;2023-05-10T00:41:00;1.57;;;0.60;;
16969;SDS011;8601;48.718;8.992;2023-05-10T00:43:26;0.73;;;0.73;;
16969;SDS011;8601;48.718;8.992;2023-05-10T00:45:53;2.30;;;1.13;;
16969;SDS011;8601;48.718;8.992;2023-05-10T00:48:22;0.77;;;0.60;;
16969;SDS011;8601;48.718;8.992;2023-05-10T00:50:50;1.00;;;0.60;;
16969;SDS011;8601;48.718;8.992;2023-05-10T00:53:17;0.60;;;0.60;;
16969;SDS011;8601;48.718;8.992;2023-05-10T00:55:44;0.80;;;0.67;;
16969;SDS011;8601;48.718;8.992;2023-05-10T00:58:12;0.77;;;0.70;;
16969;SDS011;8601;48.718;8.992;2023-05-10T01:00:40;0.50;;;0.50;;
16969;SDS011;8601;48.718;8.992;2023-05-10T01:03:09;1.43;;;0.70;;
16969;SDS011;8601;48.718;8.992;2023-05-10T01:05:37;3.33;;;0.70;;
16969;SDS011;8601;48.718;8.992;2023-05-10T01:08:04;1.53;;;0.70;;
16969;SDS011;8601;48.718;8.992;2023-05-10T01:10:32;1.33;;;0.67;;
16969;SDS011;8601;48.718;8.992;2023-05-10T01:13:00;2.43;;;0.77;;
16969;SDS011;8601;48.718;8.992;2023-05-10T01:15:28;0.70;;;0.70;;
16969;SDS011;8601;48.718;8.992;2023-05-10T01:17:57;0.70;;;0.70;;
16969;SDS011;8601;48.718;8.992;2023-05-10T01:20:24;2.53;;;0.70;;
16969;SDS011;8601;48.718;8.992;2023-05-10T01:23:10;0.80;;;0.67;;
16969;SDS011;8601;48.718;8.992;2023-05-10T01:26:12;0.60;;;0.50;;
16969;SDS011;8601;48.718;8.992;2023-05-10T01:29:08;0.70;;;0.70;;
16969;SDS011;8601;48.718;8.992;2023-05-10T01:32:01;1.07;;;0.90;;
16969;SDS011;8601;48.718;8.992;2023-05-10T01:34:48;0.50;;;0.50;;
16969;SDS011;8601;48.718;8.992;2023-05-10T01:37:24;0.60;;;0.60;;
16969;SDS011;8601;48.718;8.992;2023-05-10T01:39:58;0.60;;;0.60;;
16969;SDS011;8601;48.718;8.992;2023-05-10T01:42:29;1.40;;;0.60;;
16969;SDS011;8601;48.718;8.992;2023-05-10T01:45:06;0.90;;;0.90;;
16969;SDS011;8601;48.718;8.992;2023-05-10T01:47:41;0.80;;;0.80;;
16969;SDS011;8601;48.718;8.992;2023-05-10T01:50:10;1.73;;;0.70;;
16969;SDS011;8601;48.718;8.992;2023-05-10T01:52:41;2.63;;;0.70;;
16969;SDS011;8601;48.718;8.992;2023-05-10T01:55:11;0.80;;;0.80;;
16969;SDS011;8601;48.718;8.992;2023-05-10T01:57:42;0.60;;;0.60;;
16969;SDS011;8601;48.718;8.992;2023-05-10T02:00:11;1.13;;;0.60;;
16969;SDS011;8601;48.718;8.992;2023-05-10T02:02:42;2.83;;;0.70;;
16969;SDS011;8601;48.718;8.992;2023-05-10T02:05:11;0.77;;;0.60;;
16969;SDS011;8601;48.718;8.992;2023-05-10T02:07:40;1.43;;;0.60;;
16969;SDS011;8601;48.718;8.992;2023-05-10T02:10:09;0.53;;;0.53;;
16969;SDS011;8601;48.718;8.992;2023-05-10T02:12:39;1.00;;;0.50;;
16969;SDS011;8601;48.718;8.992;2023-05-10T02:15:08;0.87;;;0.70;;
16969;SDS011;8601;48.718;8.992;2023-05-10T02:17:37;0.70;;;0.70;;
16969;SDS011;8601;48.718;8.992;2023-05-10T02:20:07;2.30;;;0.70;;
16969;SDS011;8601;48.718;8.992;2023-05-10T02:22:35;0.90;;;0.70;;
16969;SDS011;8601;48.718;8.992;2023-05-10T02:25:03;0.60;;;0.60;;
16969;SDS011;8601;48.718;8.992;2023-05-10T02:27:32;0.73;;;0.73;;
16969;SDS011;8601;48.718;8.992;2023-05-10T02:30:00;0.60;;;0.60;;
16969;SDS011;8601;48.718;8.992;2023-05-10T02:32:28;0.63;;;0.60;;
16969;SDS011;8601;48.718;8.992;2023-05-10T02:34:56;1.30;;;0.73;;
16969;SDS011;8601;48.718;8.992;2023-05-10T02:37:28;3.23;;;0.77;;
16969;SDS011;8601;48.718;8.992;2023-05-10T02:39:55;0.63;;;0.63;;
16969;SDS011;8601;48.718;8.992;2023-05-10T02:42:25;0.90;;;0.90;;
16969;SDS011;8601;48.718;8.992;2023-05-10T02:44:54;2.13;;;1.00;;
16969;SDS011;8601;48.718;8.992;2023-05-10T02:47:26;2.97;;;0.90;;
16969;SDS011;8601;48.718;8.992;2023-05-10T02:49:53;1.10;;;1.00;;
16969;SDS011;8601;48.718;8.992;2023-05-10T02:52:21;1.10;;;1.00;;
16969;SDS011;8601;48.718;8.992;2023-05-10T02:54:54;1.27;;;1.00;;
16969;SDS011;8601;48.718;8.992;2023-05-10T02:57:25;0.90;;;0.90;;
16969;SDS011;8601;48.718;8.992;2023-05-10T02:59:54;1.90;;;0.90;;
16969;SDS011;8601;48.718;8.992;2023-05-10T03:02:21;1.43;;;1.00;;
16969;SDS011;8601;48.718;8.992;2023-05-10T03:04:48;2.13;;;1.13;;
16969;SDS011;8601;48.718;8.992;2023-05-10T03:07:15;1.33;;;1.20;;
16969;SDS011;8601;48.718;8.992;2023-05-10T03:09:44;1.27;;;1.10;;
16969;SDS011;8601;48.718;8.992;2023-05-10T03:12:14;1.73;;;1.10;;
16969;SDS011;8601;48.718;8.992;2023-05-10T03:14:57;2.80;;;1.10;;
16969;SDS011;8601;48.718;8.992;2023-05-10T03:17:30;1.53;;;1.23;;
16969;SDS011;8601;48.718;8.992;2023-05-10T03:20:03;1.30;;;1.20;;
16969;SDS011;8601;48.718;8.992;2023-05-10T03:22:34;1.53;;;1.30;;
16969;SDS011;8601;48.718;8.992;2023-05-10T03:25:05;1.40;;;1.20;;
16969;SDS011;8601;48.718;8.992;2023-05-10T03:27:36;1.20;;;1.10;;
16969;SDS011;8601;48.718;8.992;2023-05-10T03:30:08;4.03;;;1.43;;
16969;SDS011;8601;48.718;8.992;2023-05-10T03:32:37;1.30;;;1.20;;
16969;SDS011;8601;48.718;8.992;2023-05-10T03:35:06;1.20;;;1.13;;
16969;SDS011;8601;48.718;8.992;2023-05-10T03:37:33;3.87;;;1.30;;
16969;SDS011;8601;48.718;8.992;2023-05-10T03:40:00;1.47;;;1.33;;
16969;SDS011;8601;48.718;8.992;2023-05-10T03:42:27;2.47;;;1.70;;
16969;SDS011;8601;48.718;8.992;2023-05-10T03:44:55;1.57;;;1.47;;
16969;SDS011;8601;48.718;8.992;2023-05-10T03:47:23;1.40;;;1.30;;
16969;SDS011;8601;48.718;8.992;2023-05-10T03:49:50;2.83;;;1.53;;
16969;SDS011;8601;48.718;8.992;2023-05-10T03:52:17;1.50;;;1.40;;
16969;SDS011;8601;48.718;8.992;2023-05-10T03:54:44;1.70;;;1.60;;
16969;SDS011;8601;48.718;8.992;2023-05-10T03:57:10;3.53;;;1.40;;
16969;SDS011;8601;48.718;8.992;2023-05-10T03:59:38;2.67;;;1.50;;
16969;SDS011;8601;48.718;8.992;2023-05-10T04:02:06;2.07;;;1.47;;
16969;SDS011;8601;48.718;8.992;2023-05-10T04:04:33;1.40;;;1.30;;
16969;SDS011;8601;48.718;8.992;2023-05-10T04:06:59;4.40;;;1.60;;
16969;SDS011;8601;48.718;8.992;2023-05-10T04:09:26;1.70;;;1.50;;
16969;SDS011;8601;48.718;8.992;2023-05-10T04:11:53;1.50;;;1.40;;
16969;SDS011;8601;48.718;8.992;2023-05-10T04:14:20;1.90;;;1.70;;
16969;SDS011;8601;48.718;8.992;2023-05-10T04:16:47;1.57;;;1.47;;
16969;SDS011;8601;48.718;8.992;2023-05-10T04:19:15;1.50;;;1.40;;
16969;SDS011;8601;48.718;8.992;2023-05-10T04:21:42;3.20;;;1.70;;
16969;SDS011;8601;48.718;8.992;2023-05-10T04:24:09;1.40;;;1.30;;
16969;SDS011;8601;48.718;8.992;2023-05-10T04:26:36;1.63;;;1.20;;
16969;SDS011;8601;48.718;8.992;2023-05-10T04:29:03;1.53;;;1.30;;
16969;SDS011;8601;48.718;8.992;2023-05-10T04:31:30;1.73;;;1.03;;
16969;SDS011;8601;48.718;8.992;2023-05-10T04:33:57;1.87;;;1.37;;
16969;SDS011;8601;48.718;8.992;2023-05-10T04:36:26;1.93;;;1.60;;
16969;SDS011;8601;48.718;8.992;2023-05-10T04:38:53;1.40;;;1.30;;
16969;SDS011;8601;48.718;8.992;2023-05-10T04:41:20;1.77;;;1.67;;
16969;SDS011;8601;48.718;8.992;2023-05-10T04:43:47;1.37;;;1.27;;
16969;SDS011;8601;48.718;8.992;2023-05-10T04:46:15;1.70;;;1.47;;
16969;SDS011;8601;48.718;8.992;2023-05-10T04:48:42;1.53;;;1.43;;
16969;SDS011;8601;48.718;8.992;2023-05-10T04:51:09;1.73;;;1.40;;
16969;SDS011;8601;48.718;8.992;2023-05-10T04:53:38;1.83;;;1.27;;
16969;SDS011;8601;48.718;8.992;2023-05-10T04:56:05;1.53;;;1.43;;
16969;SDS011;8601;48.718;8.992;2023-05-10T04:58:33;1.70;;;1.40;;
16969;SDS011;8601;48.718;8.992;2023-05-10T05:01:04;1.60;;;1.50;;
16969;SDS011;8601;48.718;8.992;2023-05-10T05:03:32;2.00;;;1.47;;
16969;SDS011;8601;48.718;8.992;2023-05-10T05:05:58;2.30;;;1.47;;
16969;SDS011;8601;48.718;8.992;2023-05-10T05:08:25;2.07;;;1.30;;
16969;SDS011;8601;48.718;8.992;2023-05-10T05:10:54;1.53;;;1.43;;
16969;SDS011;8601;48.718;8.992;2023-05-10T05:13:20;2.40;;;1.60;;
16969;SDS011;8601;48.718;8.992;2023-05-10T05:15:47;1.60;;;1.50;;
16969;SDS011;8601;48.718;8.992;2023-05-10T05:18:14;1.90;;;1.57;;
16969;SDS011;8601;48.718;8.992;2023-05-10T05:20:41;1.43;;;1.33;;
16969;SDS011;8601;48.718;8.992;2023-05-10T05:23:08;2.90;;;1.50;;
16969;SDS011;8601;48.718;8.992;2023-05-10T05:25:35;1.47;;;1.37;;
16969;SDS011;8601;48.718;8.992;2023-05-10T05:28:04;1.40;;;1.30;;
16969;SDS011;8601;48.718;8.992;2023-05-10T05:30:31;1.80;;;1.50;;
16969;SDS011;8601;48.718;8.992;2023-05-10T05:32:58;1.87;;;1.40;;
16969;SDS011;8601;48.718;8.992;2023-05-10T05:35:25;1.60;;;1.50;;
16969;SDS011;8601;48.718;8.992;2023-05-10T05:37:52;3.13;;;2.00;;
16969;SDS011;8601;48.718;8.992;2023-05-10T05:40:19;1.80;;;1.70;;
16969;SDS011;8601;48.718;8.992;2023-05-10T05:42:46;2.83;;;1.50;;
16969;SDS011;8601;48.718;8.992;2023-05-10T05:45:14;2.03;;;1.67;;
16969;SDS011;8601;48.718;8.992;2023-05-10T05:47:41;3.10;;;2.00;;
16969;SDS011;8601;48.718;8.992;2023-05-10T05:50:09;3.63;;;1.80;;
16969;SDS011;8601;48.718;8.992;2023-05-10T05:52:36;3.30;;;2.00;;
16969;SDS011;8601;48.718;8.992;2023-05-10T05:55:03;4.10;;;1.90;;
16969;SDS011;8601;48.718;8.992;2023-05-10T05:57:30;2.97;;;1.90;;
16969;SDS011;8601;48.718;8.992;2023-05-10T05:59:57;4.23;;;2.07;;
16969;SDS011;8601;48.718;8.992;2023-05-10T06:02:26;1.90;;;1.70;;
16969;SDS011;8601;48.718;8.992;2023-05-10T06:04:53;2.47;;;2.27;;
16969;SDS011;8601;48.718;8.992;2023-05-10T06:07:19;1.67;;;1.53;;
16969;SDS011;8601;48.718;8.992;2023-05-10T06:09:46;1.70;;;1.60;;
16969;SDS011;8601;48.718;8.992;2023-05-10T06:12:13;2.20;;;1.30;;
16969;SDS011;8601;48.718;8.992;2023-05-10T06:14:40;1.57;;;1.40;;
16969;SDS011;8601;48.718;8.992;2023-05-10T06:17:07;1.77;;;1.20;;
16969;SDS011;8601;48.718;8.992;2023-05-10T06:19:35;1.73;;;1.63;;
16969;SDS011;8601;48.718;8.992;2023-05-10T06:22:02;2.47;;;1.43;;
16969;SDS011;8601;48.718;8.992;2023-05-10T06:24:29;2.03;;;1.80;;
16969;SDS011;8601;48.718;8.992;2023-05-10T06:26:56;2.20;;;1.47;;
16969;SDS011;8601;48.718;8.992;2023-05-10T06:29:25;2.37;;;1.40;;
16969;SDS011;8601;48.718;8.992;2023-05-10T06:31:52;2.47;;;1.60;;
16969;SDS011;8601;48.718;8.992;2023-05-10T06:34:19;1.67;;;1.50;;
16969;SDS011;8601;48.718;8.992;2023-05-10T06:36:47;1.60;;;1.50;;
16969;SDS011;8601;48.718;8.992;2023-05-10T06:39:14;1.67;;;1.57;;
16969;SDS011;8601;48.718;8.992;2023-05-10T06:41:41;3.07;;;1.60;;
16969;SDS011;8601;48.718;8.992;2023-05-10T06:44:08;2.00;;;1.57;;
16969;SDS011;8601;48.718;8.992;2023-05-10T06:46:35;4.27;;;1.53;;
16969;SDS011;8601;48.718;8.992;2023-05-10T06:49:02;4.07;;;1.70;;
16969;SDS011;8601;48.718;8.992;2023-05-10T06:51:29;2.00;;;1.50;;
16969;SDS011;8601;48.718;8.992;2023-05-10T06:53:57;1.40;;;1.30;;
16969;SDS011;8601;48.718;8.992;2023-05-10T06:56:25;1.90;;;1.60;;
16969;SDS011;8601;48.718;8.992;2023-05-10T06:58:52;1.93;;;1.50;;
16969;SDS011;8601;48.718;8.992;2023-05-10T07:01:19;2.80;;;1.77;;
16969;SDS011;8601;48.718;8.992;2023-05-10T07:03:46;2.20;;;1.50;;
16969;SDS011;8601;48.718;8.992;2023-05-10T07:06:13;3.20;;;1.77;;
16969;SDS011;8601;48.718;8.992;2023-05-10T07:08:40;1.87;;;1.73;;
16969;SDS011;8601;48.718;8.992;2023-05-10T07:11:08;1.93;;;1.70;;
16969;SDS011;8601;48.718;8.992;2023-05-10T07:13:35;2.83;;;1.60;;
16969;SDS011;8601;48.718;8.992;2023-05-10T07:16:04;2.83;;;1.70;;
16969;SDS011;8601;48.718;8.992;2023-05-10T07:18:31;3.30;;;1.40;;
16969;SDS011;8601;48.718;8.992;2023-05-10T07:20:58;2.47;;;1.50;;
16969;SDS011;8601;48.718;8.992;2023-05-10T07:23:25;1.73;;;1.27;;
16969;SDS011;8601;48.718;8.992;2023-05-10T07:25:52;1.20;;;1.10;;
16969;SDS011;8601;48.718;8.992;2023-05-10T07:28:21;1.30;;;1.20;;
16969;SDS011;8601;48.718;8.992;2023-05-10T07:30:48;1.60;;;1.27;;
16969;SDS011;8601;48.718;8.992;2023-05-10T07:33:15;1.80;;;1.53;;
16969;SDS011;8601;48.718;8.992;2023-05-10T07:35:43;1.30;;;1.20;;
16969;SDS011;8601;48.718;8.992;2023-05-10T07:38:10;1.93;;;1.10;;
16969;SDS011;8601;48.718;8.992;2023-05-10T07:40:37;1.90;;;1.20;;
16969;SDS011;8601;48.718;8.992;2023-05-10T07:43:05;1.67;;;1.20;;
16969;SDS011;8601;48.718;8.992;2023-05-10T07:45:34;1.40;;;1.30;;
16969;SDS011;8601;48.718;8.992;2023-05-10T07:48:01;2.80;;;1.30;;
16969;SDS011;8601;48.718;8.992;2023-05-10T07:50:28;1.30;;;1.20;;
16969;SDS011;8601;48.718;8.992;2023-05-10T07:52:55;2.60;;;1.43;;
16969;SDS011;8601;48.718;8.992;2023-05-10T07:55:22;3.07;;;1.37;;
16969;SDS011;8601;48.718;8.992;2023-05-10T07:57:49;2.60;;;1.37;;
16969;SDS011;8601;48.718;8.992;2023-05-10T08:00:18;2.03;;;1.10;;
16969;SDS011;8601;48.718;8.992;2023-05-10T08:02:47;1.40;;;1.30;;
16969;SDS011;8601;48.718;8.992;2023-05-10T08:05:14;2.33;;;1.33;;
16969;SDS011;8601;48.718;8.992;2023-05-10T08:07:41;1.70;;;1.10;;
16969;SDS011;8601;48.718;8.992;2023-05-10T08:10:08;2.43;;;1.20;;
16969;SDS011;8601;48.718;8.992;2023-05-10T08:12:36;1.80;;;1.10;;
16969;SDS011;8601;48.718;8.992;2023-05-10T08:15:03;1.80;;;1.17;;
16969;SDS011;8601;48.718;8.992;2023-05-10T08:17:31;1.50;;;1.30;;
16969;SDS011;8601;48.718;8.992;2023-05-10T08:19:59;1.20;;;1.10;;
16969;SDS011;8601;48.718;8.992;2023-05-10T08:22:26;0.90;;;0.90;;
16969;SDS011;8601;48.718;8.992;2023-05-10T08:24:53;1.50;;;0.90;;
16969;SDS011;8601;48.718;8.992;2023-05-10T08:27:20;1.13;;;1.13;;
16969;SDS011;8601;48.718;8.992;2023-05-10T08:29:47;1.77;;;1.07;;
16969;SDS011;8601;48.718;8.992;2023-05-10T08:32:14;2.30;;;0.90;;
16969;SDS011;8601;48.718;8.992;2023-05-10T08:34:41;14.50;;;1.40;;
16969;SDS011;8601;48.718;8.992;2023-05-10T08:37:09;1.23;;;0.80;;
16969;SDS011;8601;48.718;8.992;2023-05-10T08:39:38;1.30;;;0.90;;
16969;SDS011;8601;48.718;8.992;2023-05-10T08:42:05;0.70;;;0.70;;
16969;SDS011;8601;48.718;8.992;2023-05-10T08:44:34;1.13;;;0.73;;
16969;SDS011;8601;48.718;8.992;2023-05-10T08:47:04;2.43;;;0.80;;
16969;SDS011;8601;48.718;8.992;2023-05-10T08:49:32;1.03;;;0.80;;
16969;SDS011;8601;48.718;8.992;2023-05-10T08:51:59;0.80;;;0.80;;
16969;SDS011;8601;48.718;8.992;2023-05-10T08:54:32;1.30;;;0.80;;
16969;SDS011;8601;48.718;8.992;2023-05-10T08:56:59;1.30;;;0.60;;
16969;SDS011;8601;48.718;8.992;2023-05-10T08:59:27;0.97;;;0.70;;
16969;SDS011;8601;48.718;8.992;2023-05-10T09:01:55;1.27;;;0.80;;
16969;SDS011;8601;48.718;8.992;2023-05-10T09:04:24;0.80;;;0.80;;
16969;SDS011;8601;48.718;8.992;2023-05-10T09:06:50;1.30;;;1.20;;
16969;SDS011;8601;48.718;8.992;2023-05-10T09:09:18;1.60;;;1.00;;
16969;SDS011;8601;48.718;8.992;2023-05-10T09:11:47;0.97;;;0.80;;
16969;SDS011;8601;48.718;8.992;2023-05-10T09:14:14;0.80;;;0.80;;
16969;SDS011;8601;48.718;8.992;2023-05-10T09:16:42;2.07;;;0.80;;
16969;SDS011;8601;48.718;8.992;2023-05-10T09:19:10;2.00;;;1.00;;
16969;SDS011;8601;48.718;8.992;2023-05-10T09:21:38;1.07;;;0.90;;
16969;SDS011;8601;48.718;8.992;2023-05-10T09:24:05;0.83;;;0.83;;
16969;SDS011;8601;48.718;8.992;2023-05-10T09:26:34;0.63;;;0.60;;
16969;SDS011;8601;48.718;8.992;2023-05-10T09:29:02;0.83;;;0.73;;
16969;SDS011;8601;48.718;8.992;2023-05-10T09:31:44;0.80;;;0.80;;
16969;SDS011;8601;48.718;8.992;2023-05-10T09:34:15;0.90;;;0.90;;
16969;SDS011;8601;48.718;8.992;2023-05-10T09:36:53;0.90;;;0.80;;
16969;SDS011;8601;48.718;8.992;2023-05-10T09:39:29;1.37;;;0.63;;
16969;SDS011;8601;48.718;8.992;2023-05-10T09:41:57;0.70;;;0.70;;
16969;SDS011;8601;48.718;8.992;2023-05-10T09:44:27;0.70;;;0.70;;
16969;SDS011;8601;48.718;8.992;2023-05-10T09:46:54;2.27;;;0.80;;
16969;SDS011;8601;48.718;8.992;2023-05-10T09:49:21;0.70;;;0.70;;
16969;SDS011;8601;48.718;8.992;2023-05-10T09:51:57;1.13;;;0.60;;
16969;SDS011;8601;48.718;8.992;2023-05-10T09:54:27;0.87;;;0.80;;
16969;SDS011;8601;48.718;8.992;2023-05-10T09:56:54;1.83;;;0.80;;
16969;SDS011;8601;48.718;8.992;2023-05-10T09:59:21;0.83;;;0.60;;
16969;SDS011;8601;48.718;8.992;2023-05-10T10:01:52;0.63;;;0.63;;
16969;SDS011;8601;48.718;8.992;2023-05-10T10:04:21;0.70;;;0.70;;
16969;SDS011;8601;48.718;8.992;2023-05-10T10:06:58;0.60;;;0.60;;
16969;SDS011;8601;48.718;8.992;2023-05-10T10:09:26;1.77;;;0.80;;
16969;SDS011;8601;48.718;8.992;2023-05-10T10:11:54;0.73;;;0.73;;
16969;SDS011;8601;48.718;8.992;2023-05-10T10:14:22;1.03;;;0.80;;
16969;SDS011;8601;48.718;8.992;2023-05-10T10:16:49;0.77;;;0.60;;
16969;SDS011;8601;48.718;8.992;2023-05-10T10:19:17;0.70;;;0.70;;
16969;SDS011;8601;48.718;8.992;2023-05-10T10:21:45;0.70;;;0.70;;
16969;SDS011;8601;48.718;8.992;2023-05-10T10:24:13;1.67;;;0.87;;
16969;SDS011;8601;48.718;8.992;2023-05-10T10:26:40;0.93;;;0.93;;
16969;SDS011;8601;48.718;8.992;2023-05-10T10:29:11;2.33;;;0.80;;
16969;SDS011;8601;48.718;8.992;2023-05-10T10:31:46;1.17;;;0.90;;
16969;SDS011;8601;48.718;8.992;2023-05-10T10:34:23;2.37;;;1.00;;
16969;SDS011;8601;48.718;8.992;2023-05-10T10:36:53;0.70;;;0.70;;
16969;SDS011;8601;48.718;8.992;2023-05-10T10:39:21;1.93;;;1.00;;
16969;SDS011;8601;48.718;8.992;2023-05-10T10:41:50;3.90;;;0.80;;
16969;SDS011;8601;48.718;8.992;2023-05-10T10:44:26;0.80;;;0.80;;
16969;SDS011;8601;48.718;8.992;2023-05-10T10:47:02;0.80;;;0.80;;
16969;SDS011;8601;48.718;8.992;2023-05-10T10:49:37;0.80;;;0.80;;
16969;SDS011;8601;48.718;8.992;2023-05-10T10:52:24;1.10;;;0.90;;
16969;SDS011;8601;48.718;8.992;2023-05-10T10:54:57;1.20;;;0.80;;
16969;SDS011;8601;48.718;8.992;2023-05-10T10:57:26;0.83;;;0.63;;
16969;SDS011;8601;48.718;8.992;2023-05-10T11:03:03;1.00;;;0.90;;
16969;SDS011;8601;48.718;8.992;2023-05-10T11:05:37;1.80;;;0.87;;
16969;SDS011;8601;48.718;8.992;2023-05-10T11:08:10;1.20;;;1.10;;
16969;SDS011;8601;48.718;8.992;2023-05-10T11:10:38;1.33;;;0.90;;
16969;SDS011;8601;48.718;8.992;2023-05-10T11:13:07;0.90;;;0.90;;
16969;SDS011;8601;48.718;8.992;2023-05-10T11:15:35;2.23;;;0.90;;
16969;SDS011;8601;48.718;8.992;2023-05-10T11:18:19;2.00;;;0.90;;
16969;SDS011;8601;48.718;8.992;2023-05-10T11:20:51;0.90;;;0.90;;
16969;SDS011;8601;48.718;8.992;2023-05-10T11:23:18;1.63;;;0.83;;
16969;SDS011;8601;48.718;8.992;2023-05-10T11:25:47;1.07;;;0.83;;
16969;SDS011;8601;48.718;8.992;2023-05-10T11:28:16;0.93;;;0.80;;
16969;SDS011;8601;48.718;8.992;2023-05-10T11:30:43;0.97;;;0.87;;
16969;SDS011;8601;48.718;8.992;2023-05-10T11:33:14;3.50;;;1.20;;
16969;SDS011;8601;48.718;8.992;2023-05-10T11:35:41;1.07;;;0.97;;
16969;SDS011;8601;48.718;8.992;2023-05-10T11:38:10;2.83;;;0.97;;
16969;SDS011;8601;48.718;8.992;2023-05-10T11:40:38;1.60;;;1.20;;
16969;SDS011;8601;48.718;8.992;2023-05-10T11:43:06;0.87;;;0.87;;
16969;SDS011;8601;48.718;8.992;2023-05-10T11:45:35;3.10;;;1.00;;
16969;SDS011;8601;48.718;8.992;2023-05-10T11:48:02;1.70;;;0.90;;
16969;SDS011;8601;48.718;8.992;2023-05-10T11:50:29;0.80;;;0.80;;
16969;SDS011;8601;48.718;8.992;2023-05-10T11:52:57;1.27;;;0.90;;
16969;SDS011;8601;48.718;8.992;2023-05-10T11:55:26;1.73;;;1.10;;
16969;SDS011;8601;48.718;8.992;2023-05-10T11:57:55;2.30;;;0.90;;
16969;SDS011;8601;48.718;8.992;2023-05-10T12:00:26;1.67;;;1.20;;
16969;SDS011;8601;48.718;8.992;2023-05-10T12:02:53;2.23;;;1.07;;
16969;SDS011;8601;48.718;8.992;2023-05-10T12:05:20;2.37;;;1.33;;
16969;SDS011;8601;48.718;8.992;2023-05-10T12:07:48;4.10;;;1.13;;
16969;SDS011;8601;48.718;8.992;2023-05-10T12:10:14;5.40;;;1.50;;
16969;SDS011;8601;48.718;8.992;2023-05-10T12:12:44;1.97;;;1.10;;
16969;SDS011;8601;48.718;8.992;2023-05-10T12:15:12;2.43;;;1.30;;
16969;SDS011;8601;48.718;8.992;2023-05-10T12:17:44;1.50;;;1.00;;
16969;SDS011;8601;48.718;8.992;2023-05-10T12:20:12;2.70;;;1.43;;
16969;SDS011;8601;48.718;8.992;2023-05-10T12:22:40;1.40;;;0.90;;
16969;SDS011;8601;48.718;8.992;2023-05-10T12:25:08;2.30;;;1.20;;
16969;SDS011;8601;48.718;8.992;2023-05-10T12:27:36;1.93;;;1.00;;
16969;SDS011;8601;48.718;8.992;2023-05-10T12:30:05;1.03;;;1.03;;
16969;SDS011;8601;48.718;8.992;2023-05-10T12:32:38;2.17;;;1.00;;
16969;SDS011;8601;48.718;8.992;2023-05-10T12:35:06;2.80;;;1.13;;
16969;SDS011;8601;48.718;8.992;2023-05-10T12:37:34;0.97;;;0.97;;
16969;SDS011;8601;48.718;8.992;2023-05-10T12:40:05;6.30;;;1.60;;
16969;SDS011;8601;48.718;8.992;2023-05-10T12:42:33;1.60;;;1.00;;
16969;SDS011;8601;48.718;8.992;2023-05-10T12:45:00;1.93;;;1.20;;
16969;SDS011;8601;48.718;8.992;2023-05-10T12:47:28;4.47;;;1.57;;
16969;SDS011;8601;48.718;8.992;2023-05-10T12:49:55;0.90;;;0.90;;
16969;SDS011;8601;48.718;8.992;2023-05-10T12:52:22;1.07;;;0.93;;
16969;SDS011;8601;48.718;8.992;2023-05-10T12:54:51;3.83;;;1.43;;
16969;SDS011;8601;48.718;8.992;2023-05-10T12:57:18;2.17;;;1.10;;
16969;SDS011;8601;48.718;8.992;2023-05-10T12:59:46;1.17;;;1.07;;
16969;SDS011;8601;48.718;8.992;2023-05-10T13:02:12;1.40;;;1.30;;
16969;SDS011;8601;48.718;8.992;2023-05-10T13:04:41;2.77;;;1.10;;
16969;SDS011;8601;48.718;8.992;2023-05-10T13:07:08;1.37;;;1.00;;
16969;SDS011;8601;48.718;8.992;2023-05-10T13:09:35;1.97;;;0.97;;
16969;SDS011;8601;48.718;8.992;2023-05-10T13:12:02;1.00;;;0.90;;
16969;SDS011;8601;48.718;8.992;2023-05-10T13:14:29;2.73;;;1.10;;
16969;SDS011;8601;48.718;8.992;2023-05-10T13:16:57;1.90;;;1.00;;
16969;SDS011;8601;48.718;8.992;2023-05-10T13:19:25;1.30;;;0.93;;
16969;SDS011;8601;48.718;8.992;2023-05-10T13:21:54;2.20;;;1.13;;
16969;SDS011;8601;48.718;8.992;2023-05-10T13:24:20;1.47;;;1.00;;
16969;SDS011;8601;48.718;8.992;2023-05-10T13:26:47;1.53;;;1.10;;
16969;SDS011;8601;48.718;8.992;2023-05-10T13:29:14;2.37;;;1.10;;
16969;SDS011;8601;48.718;8.992;2023-05-10T13:31:44;1.20;;;0.97;;
16969;SDS011;8601;48.718;8.992;2023-05-10T13:34:11;2.17;;;0.80;;
16969;SDS011;8601;48.718;8.992;2023-05-10T13:36:37;2.20;;;1.00;;
16969;SDS011;8601;48.718;8.992;2023-05-10T13:39:06;1.03;;;0.80;;
16969;SDS011;8601;48.718;8.992;2023-05-10T13:41:33;2.60;;;0.90;;
16969;SDS011;8601;48.718;8.992;2023-05-10T13:44:00;2.30;;;1.10;;
16969;SDS011;8601;48.718;8.992;2023-05-10T13:46:27;1.60;;;1.00;;
16969;SDS011;8601;48.718;8.992;2023-05-10T13:48:55;1.77;;;0.90;;
16969;SDS011;8601;48.718;8.992;2023-05-10T13:51:21;4.53;;;1.03;;
16969;SDS011;8601;48.718;8.992;2023-05-10T13:53:48;1.57;;;0.90;;
16969;SDS011;8601;48.718;8.992;2023-05-10T13:56:17;1.37;;;1.20;;
16969;SDS011;8601;48.718;8.992;2023-05-10T13:58:44;2.60;;;1.20;;
16969;SDS011;8601;48.718;8.992;2023-05-10T14:01:11;1.97;;;1.20;;
16969;SDS011;8601;48.718;8.992;2023-05-10T14:03:38;2.93;;;0.90;;
16969;SDS011;8601;48.718;8.992;2023-05-10T14:06:05;3.10;;;1.10;;
16969;SDS011;8601;48.718;8.992;2023-05-10T14:08:33;1.47;;;0.90;;
16969;SDS011;8601;48.718;8.992;2023-05-10T14:11:00;1.90;;;0.90;;
16969;SDS011;8601;48.718;8.992;2023-05-10T14:13:29;0.80;;;0.80;;
16969;SDS011;8601;48.718;8.992;2023-05-10T14:15:55;3.03;;;0.90;;
16969;SDS011;8601;48.718;8.992;2023-05-10T14:18:23;2.10;;;0.90;;
16969;SDS011;8601;48.718;8.992;2023-05-10T14:20:50;2.40;;;0.97;;
16969;SDS011;8601;48.718;8.992;2023-05-10T14:23:17;1.17;;;0.90;;
16969;SDS011;8601;48.718;8.992;2023-05-10T14:25:48;2.00;;;0.90;;
16969;SDS011;8601;48.718;8.992;2023-05-10T14:28:16;2.17;;;1.00;;
16969;SDS011;8601;48.718;8.992;2023-05-10T14:30:45;2.43;;;1.13;;
16969;SDS011;8601;48.718;8.992;2023-05-10T14:33:12;1.33;;;1.00;;
16969;SDS011;8601;48.718;8.992;2023-05-10T14:35:39;1.33;;;0.90;;
16969;SDS011;8601;48.718;8.992;2023-05-10T14:38:06;1.20;;;0.90;;
16969;SDS011;8601;48.718;8.992;2023-05-10T14:40:33;1.03;;;0.70;;
16969;SDS011;8601;48.718;8.992;2023-05-10T14:43:00;1.33;;;1.13;;
16969;SDS011;8601;48.718;8.992;2023-05-10T14:45:26;1.37;;;0.90;;
16969;SDS011;8601;48.718;8.992;2023-05-10T14:47:55;2.87;;;1.20;;
16969;SDS011;8601;48.718;8.992;2023-05-10T14:50:22;2.23;;;1.20;;
16969;SDS011;8601;48.718;8.992;2023-05-10T14:52:49;3.17;;;1.00;;
16969;SDS011;8601;48.718;8.992;2023-05-10T14:55:16;1.77;;;1.00;;
16969;SDS011;8601;48.718;8.992;2023-05-10T14:57:42;1.03;;;0.90;;
16969;SDS011;8601;48.718;8.992;2023-05-10T15:00:12;2.53;;;0.90;;
16969;SDS011;8601;48.718;8.992;2023-05-10T15:02:41;1.73;;;0.83;;
16969;SDS011;8601;48.718;8.992;2023-05-10T15:05:09;2.80;;;0.90;;
16969;SDS011;8601;48.718;8.992;2023-05-10T15:07:36;2.43;;;0.97;;
16969;SDS011;8601;48.718;8.992;2023-05-10T15:10:03;1.07;;;0.90;;
16969;SDS011;8601;48.718;8.992;2023-05-10T15:12:31;1.53;;;0.83;;